createdAt,value
2019-03-24T00:00:41.766Z,15.50
2019-03-24T00:01:41.760Z,13.10
2019-03-24T00:02:41.775Z,18.20
2019-03-24T00:03:41.767Z,14.30
2019-03-24T00:04:41.717Z,13.70
2019-03-24T00:05:41.713Z,14.20
2019-03-24T00:06:41.701Z,14.60
2019-03-24T00:07:41.693Z,15.60
2019-03-24T00:08:41.694Z,13.30
2019-03-24T00:09:41.682Z,18.70
2019-03-24T00:10:41.652Z,16.50
2019-03-24T00:11:41.661Z,17.90
2019-03-24T00:12:41.625Z,18.20
2019-03-24T00:13:41.659Z,18.80
2019-03-24T00:14:41.627Z,16.00
2019-03-24T00:15:41.597Z,16.30
2019-03-24T00:16:41.590Z,19.30
2019-03-24T00:17:41.585Z,18.40
2019-03-24T00:18:41.581Z,18.60
2019-03-24T00:19:41.573Z,17.50
2019-03-24T00:20:41.556Z,15.90
2019-03-24T00:21:41.583Z,15.20
2019-03-24T00:22:41.521Z,14.70
2019-03-24T00:23:41.554Z,19.80
2019-03-24T00:24:41.532Z,14.50
2019-03-24T00:25:41.491Z,17.60
2019-03-24T00:26:41.486Z,20.80
2019-03-24T00:27:41.460Z,18.40
2019-03-24T00:28:41.482Z,15.10
2019-03-24T00:29:41.444Z,17.80
2019-03-24T00:30:41.435Z,16.90
2019-03-24T00:31:41.448Z,17.50
2019-03-24T00:32:41.417Z,19.30
2019-03-24T00:33:41.424Z,16.60
2019-03-24T00:34:41.385Z,18.00
2019-03-24T00:35:41.383Z,16.70
2019-03-24T00:36:41.366Z,19.70
2019-03-24T00:37:41.372Z,15.60
2019-03-24T00:38:41.355Z,17.70
2019-03-24T00:39:41.342Z,16.60
2019-03-24T00:40:41.325Z,16.20
2019-03-24T00:41:41.320Z,18.40
2019-03-24T00:42:41.302Z,18.90
2019-03-24T00:43:41.305Z,17.70
2019-03-24T00:44:41.275Z,17.80
2019-03-24T00:45:41.274Z,19.50
2019-03-24T00:46:41.258Z,17.80
2019-03-24T00:47:41.271Z,20.90
2019-03-24T00:48:41.251Z,15.20
2019-03-24T00:49:41.240Z,19.00
2019-03-24T00:50:41.220Z,16.20
2019-03-24T00:51:41.206Z,18.00
2019-03-24T00:52:41.189Z,15.70
2019-03-24T00:53:41.182Z,15.20
2019-03-24T00:54:41.184Z,18.50
2019-03-24T00:55:41.183Z,20.80
2019-03-24T00:56:41.153Z,15.20
2019-03-24T00:57:41.136Z,23.30
2019-03-24T00:58:41.150Z,22.30
2019-03-24T00:59:41.125Z,17.10
2019-03-24T01:00:41.111Z,16.10
2019-03-24T01:01:41.102Z,21.90
2019-03-24T01:02:41.081Z,24.20
2019-03-24T01:03:41.073Z,21.30
2019-03-24T01:04:41.083Z,17.10
2019-03-24T01:05:41.057Z,15.40
2019-03-24T01:06:41.041Z,18.30
2019-03-24T01:07:41.023Z,20.50
2019-03-24T01:08:41.025Z,17.10
2019-03-24T01:09:41.032Z,16.20
2019-03-24T01:10:40.994Z,16.70
2019-03-24T01:11:40.991Z,15.30
2019-03-24T01:12:40.974Z,15.20
2019-03-24T01:13:40.971Z,18.50
2019-03-24T01:14:40.975Z,17.70
2019-03-24T01:15:47.746Z,23.10
2019-03-24T01:16:40.939Z,20.70
2019-03-24T01:17:40.943Z,18.40
2019-03-24T01:18:40.912Z,18.00
2019-03-24T01:19:40.918Z,21.30
2019-03-24T01:20:40.888Z,20.40
2019-03-24T01:22:50.091Z,12.60
2019-03-24T01:23:51.082Z,15.40
2019-03-24T01:24:51.091Z,20.20
2019-03-24T01:25:51.042Z,18.90
2019-03-24T01:26:51.048Z,19.10
2019-03-24T01:27:51.022Z,18.30
2019-03-24T01:28:51.022Z,17.80
2019-03-24T01:29:51.029Z,18.00
2019-03-24T01:30:51.005Z,20.10
2019-03-24T01:31:50.994Z,20.60
2019-03-24T01:32:50.982Z,17.10
2019-03-24T01:33:50.958Z,20.00
2019-03-24T01:34:50.981Z,18.60
2019-03-24T01:35:50.941Z,15.40
2019-03-24T01:36:50.929Z,18.80
2019-03-24T01:37:50.926Z,16.70
2019-03-24T01:38:50.919Z,18.60
2019-03-24T01:39:50.926Z,17.70
2019-03-24T01:40:50.912Z,21.30
2019-03-24T01:41:50.891Z,23.10
2019-03-24T01:42:50.873Z,19.20
2019-03-24T01:43:50.861Z,21.40
2019-03-24T01:44:50.887Z,18.10
2019-03-24T01:45:58.683Z,18.00
2019-03-24T01:46:50.829Z,22.30
2019-03-24T01:47:50.807Z,21.80
2019-03-24T01:48:50.815Z,21.00
2019-03-24T01:49:50.815Z,19.90
2019-03-24T01:50:50.793Z,22.60
2019-03-24T01:51:50.774Z,19.60
2019-03-24T01:52:50.754Z,20.20
2019-03-24T01:53:50.760Z,19.40
2019-03-24T01:54:50.761Z,20.60
2019-03-24T01:55:50.720Z,20.50
2019-03-24T01:56:50.726Z,19.20
2019-03-24T01:57:50.713Z,20.70
2019-03-24T01:58:50.698Z,17.30
2019-03-24T01:59:50.706Z,18.40
2019-03-24T02:00:50.672Z,24.20
2019-03-24T02:01:50.689Z,17.40
2019-03-24T02:02:50.656Z,19.30
2019-03-24T02:03:50.652Z,24.50
2019-03-24T02:04:50.641Z,22.70
2019-03-24T02:05:50.638Z,20.30
2019-03-24T02:06:50.612Z,21.00
2019-03-24T02:07:50.596Z,23.00
2019-03-24T02:08:50.606Z,18.00
2019-03-24T02:09:50.588Z,22.50
2019-03-24T02:10:50.584Z,22.50
2019-03-24T02:11:50.916Z,21.90
2019-03-24T02:12:50.547Z,22.30
2019-03-24T02:13:50.537Z,23.40
2019-03-24T02:14:50.513Z,19.00
2019-03-24T02:15:50.525Z,19.40
2019-03-24T02:16:50.501Z,18.30
2019-03-24T02:17:50.483Z,19.40
2019-03-24T02:18:50.474Z,24.60
2019-03-24T02:19:50.470Z,23.70
2019-03-24T02:20:50.477Z,20.30
2019-03-24T02:21:50.438Z,21.70
2019-03-24T02:22:50.443Z,19.20
2019-03-24T02:23:50.428Z,21.30
2019-03-24T02:24:50.411Z,25.30
2019-03-24T02:25:50.427Z,20.90
2019-03-24T02:26:50.395Z,21.50
2019-03-24T02:27:50.409Z,24.10
2019-03-24T02:28:50.368Z,24.90
2019-03-24T02:29:50.363Z,24.00
2019-03-24T02:30:50.376Z,24.90
2019-03-24T02:31:50.357Z,22.90
2019-03-24T02:32:50.339Z,23.30
2019-03-24T02:33:50.318Z,21.80
2019-03-24T02:34:50.308Z,23.40
2019-03-24T02:35:50.304Z,23.00
2019-03-24T02:36:50.285Z,26.00
2019-03-24T02:37:50.284Z,28.50
2019-03-24T02:38:50.273Z,23.40
2019-03-24T02:39:50.259Z,22.00
2019-03-24T02:40:50.270Z,22.70
2019-03-24T02:41:50.243Z,26.30
2019-03-24T02:42:50.227Z,25.40
2019-03-24T02:43:50.213Z,25.00
2019-03-24T02:44:50.199Z,27.30
2019-03-24T02:45:50.209Z,24.50
2019-03-24T02:46:50.173Z,26.20
2019-03-24T02:47:50.184Z,26.40
2019-03-24T02:48:50.153Z,24.10
2019-03-24T02:49:50.139Z,33.20
2019-03-24T02:50:50.145Z,25.50
2019-03-24T02:51:50.122Z,25.10
2019-03-24T02:52:50.842Z,20.60
2019-03-24T02:53:50.091Z,26.80
2019-03-24T02:54:50.094Z,23.80
2019-03-24T02:55:50.117Z,26.30
2019-03-24T02:56:50.066Z,25.00
2019-03-24T02:57:50.048Z,23.90
2019-03-24T02:58:50.053Z,24.90
2019-03-24T02:59:50.052Z,28.40
2019-03-24T03:00:50.079Z,26.40
2019-03-24T03:01:50.024Z,29.50
2019-03-24T03:02:49.999Z,23.90
2019-03-24T03:03:50.001Z,23.10
2019-03-24T03:04:49.983Z,25.90
2019-03-24T03:05:49.989Z,28.30
2019-03-24T03:06:49.974Z,27.50
2019-03-24T03:07:49.950Z,25.10
2019-03-24T03:08:49.949Z,30.60
2019-03-24T03:09:49.937Z,27.30
2019-03-24T03:10:49.955Z,25.30
2019-03-24T03:11:49.900Z,29.20
2019-03-24T03:12:49.905Z,29.30
2019-03-24T03:13:49.889Z,30.50
2019-03-24T03:14:49.885Z,36.40
2019-03-24T03:15:49.885Z,28.90
2019-03-24T03:16:49.849Z,29.00
2019-03-24T03:17:49.828Z,29.00
2019-03-24T03:18:49.839Z,34.10
2019-03-24T03:19:49.842Z,31.80
2019-03-24T03:20:49.812Z,27.90
2019-03-24T03:21:49.821Z,25.80
2019-03-24T03:23:58.999Z,23.40
2019-03-24T03:24:59.976Z,27.80
2019-03-24T03:25:59.976Z,25.30
2019-03-24T03:26:59.954Z,33.50
2019-03-24T03:27:59.947Z,28.00
2019-03-24T03:28:59.934Z,31.10
2019-03-24T03:29:59.980Z,31.60
2019-03-24T03:30:59.933Z,32.50
2019-03-24T03:31:59.952Z,31.90
2019-03-24T03:32:59.893Z,35.40
2019-03-24T03:33:59.876Z,29.20
2019-03-24T03:34:59.882Z,35.60
2019-03-24T03:35:59.877Z,32.00
2019-03-24T03:36:59.846Z,37.50
2019-03-24T03:37:59.830Z,29.00
2019-03-24T03:38:59.826Z,33.20
2019-03-24T03:39:59.830Z,28.00
2019-03-24T03:40:59.926Z,33.80
2019-03-24T03:41:59.810Z,29.80
2019-03-24T03:42:59.786Z,33.60
2019-03-24T03:43:59.781Z,31.90
2019-03-24T03:44:59.763Z,34.40
2019-03-24T03:45:59.767Z,30.00
2019-03-24T03:46:59.759Z,33.70
2019-03-24T03:47:59.737Z,35.20
2019-03-24T03:48:59.724Z,34.30
2019-03-24T03:49:59.700Z,30.90
2019-03-24T03:50:59.690Z,32.40
2019-03-24T03:51:59.718Z,33.00
2019-03-24T03:52:59.671Z,29.50
2019-03-24T03:53:59.657Z,35.50
2019-03-24T03:54:59.654Z,31.50
2019-03-24T03:55:59.637Z,33.50
2019-03-24T03:56:59.643Z,37.20
2019-03-24T03:57:59.626Z,36.60
2019-03-24T03:58:59.614Z,29.10
2019-03-24T03:59:59.613Z,30.90
2019-03-24T04:00:59.600Z,32.70
2019-03-24T04:01:59.583Z,33.20
2019-03-24T04:02:59.582Z,36.60
2019-03-24T04:03:59.573Z,30.30
2019-03-24T04:04:59.549Z,39.80
2019-03-24T04:05:59.538Z,35.30
2019-03-24T04:06:59.583Z,34.60
2019-03-24T04:07:59.530Z,41.70
2019-03-24T04:08:59.505Z,31.40
2019-03-24T04:09:59.485Z,32.20
2019-03-24T04:10:59.475Z,36.20
2019-03-24T04:11:59.489Z,38.00
2019-03-24T04:12:59.459Z,34.90
2019-03-24T04:13:59.469Z,37.40
2019-03-24T04:14:59.443Z,33.10
2019-03-24T04:15:59.438Z,34.90
2019-03-24T04:17:06.943Z,34.60
2019-03-24T04:17:59.420Z,33.00
2019-03-24T04:18:59.387Z,31.80
2019-03-24T04:19:59.387Z,33.50
2019-03-24T04:20:59.373Z,31.30
2019-03-24T04:21:59.385Z,33.40
2019-03-24T04:22:59.346Z,35.10
2019-03-24T04:23:59.334Z,33.40
2019-03-24T04:24:59.327Z,30.40
2019-03-24T04:25:59.318Z,32.00
2019-03-24T04:26:59.328Z,29.30
2019-03-24T04:27:59.300Z,30.50
2019-03-24T04:28:59.288Z,39.20
2019-03-24T04:29:59.293Z,33.80
2019-03-24T04:30:59.273Z,34.10
2019-03-24T04:31:59.268Z,30.90
2019-03-24T04:32:59.239Z,38.50
2019-03-24T04:33:59.247Z,40.00
2019-03-24T04:34:59.243Z,42.70
2019-03-24T04:35:59.213Z,37.40
2019-03-24T04:36:59.219Z,33.30
2019-03-24T04:37:59.183Z,32.70
2019-03-24T04:38:59.171Z,37.00
2019-03-24T04:39:59.723Z,34.40
2019-03-24T04:40:59.164Z,32.90
2019-03-24T04:41:59.166Z,31.60
2019-03-24T04:42:59.135Z,35.10
2019-03-24T04:43:59.143Z,31.20
2019-03-24T04:44:59.124Z,32.60
2019-03-24T04:45:59.105Z,32.10
2019-03-24T04:46:59.111Z,33.60
2019-03-24T04:47:59.077Z,35.60
2019-03-24T04:48:59.066Z,33.20
2019-03-24T04:49:59.053Z,32.30
2019-03-24T04:50:59.053Z,36.30
2019-03-24T04:51:59.073Z,31.90
2019-03-24T04:52:59.030Z,41.20
2019-03-24T04:53:59.012Z,42.40
2019-03-24T04:54:59.013Z,38.40
2019-03-24T04:55:59.004Z,37.10
2019-03-24T04:56:59.003Z,34.30
2019-03-24T04:57:58.973Z,35.80
2019-03-24T04:58:58.973Z,32.20
2019-03-24T04:59:58.956Z,35.20
2019-03-24T05:00:58.947Z,36.80
2019-03-24T05:01:58.953Z,28.00
2019-03-24T05:02:58.920Z,30.90
2019-03-24T05:03:58.921Z,38.90
2019-03-24T05:04:58.894Z,38.20
2019-03-24T05:05:58.902Z,38.60
2019-03-24T05:06:58.913Z,32.00
2019-03-24T05:07:58.864Z,34.40
2019-03-24T05:08:58.850Z,38.30
2019-03-24T05:09:58.856Z,37.00
2019-03-24T05:10:58.831Z,34.30
2019-03-24T05:11:58.830Z,35.40
2019-03-24T05:12:58.832Z,31.70
2019-03-24T05:13:58.807Z,37.70
2019-03-24T05:14:58.781Z,34.70
2019-03-24T05:15:58.773Z,33.40
2019-03-24T05:16:58.778Z,35.50
2019-03-24T05:17:58.776Z,40.00
2019-03-24T05:18:58.752Z,31.60
2019-03-24T05:19:58.735Z,32.40
2019-03-24T05:20:58.730Z,32.40
2019-03-24T05:21:58.719Z,38.20
2019-03-24T05:22:58.724Z,33.00
2019-03-24T05:25:08.193Z,38.90
2019-03-24T05:26:09.186Z,36.90
2019-03-24T05:27:09.164Z,33.10
2019-03-24T05:28:09.181Z,32.30
2019-03-24T05:29:09.152Z,29.90
2019-03-24T05:30:09.129Z,32.90
2019-03-24T05:31:09.121Z,39.80
2019-03-24T05:32:09.116Z,33.20
2019-03-24T05:33:09.125Z,31.70
2019-03-24T05:34:09.097Z,34.10
2019-03-24T05:35:09.115Z,31.80
2019-03-24T05:36:09.078Z,30.70
2019-03-24T05:37:09.064Z,30.50
2019-03-24T05:38:09.064Z,29.60
2019-03-24T05:39:09.037Z,34.20
2019-03-24T05:40:09.036Z,31.70
2019-03-24T05:41:09.015Z,32.90
2019-03-24T05:42:09.001Z,35.30
2019-03-24T05:43:09.022Z,33.10
2019-03-24T05:44:09.004Z,30.90
2019-03-24T05:45:08.977Z,30.80
2019-03-24T05:46:08.974Z,32.60
2019-03-24T05:47:08.975Z,37.50
2019-03-24T05:48:08.973Z,39.80
2019-03-24T05:49:08.931Z,32.80
2019-03-24T05:50:08.915Z,33.10
2019-03-24T05:51:08.913Z,33.70
2019-03-24T05:52:08.905Z,35.80
2019-03-24T05:53:08.898Z,37.60
2019-03-24T05:54:08.876Z,35.50
2019-03-24T05:55:08.875Z,39.00
2019-03-24T05:56:08.853Z,29.70
2019-03-24T05:57:08.852Z,45.40
2019-03-24T05:58:09.163Z,33.70
2019-03-24T05:59:08.830Z,44.70
2019-03-24T06:00:08.808Z,34.20
2019-03-24T06:01:08.807Z,36.70
2019-03-24T06:02:08.799Z,36.60
2019-03-24T06:03:08.791Z,42.90
2019-03-24T06:04:08.775Z,34.30
2019-03-24T06:05:08.774Z,38.80
2019-03-24T06:06:08.760Z,39.00
2019-03-24T06:07:08.741Z,40.40
2019-03-24T06:08:08.749Z,29.20
2019-03-24T06:09:08.721Z,39.30
2019-03-24T06:10:08.698Z,36.90
2019-03-24T06:11:08.709Z,40.60
2019-03-24T06:12:08.684Z,36.10
2019-03-24T06:13:08.683Z,37.50
2019-03-24T06:14:08.668Z,37.00
2019-03-24T06:15:08.642Z,36.00
2019-03-24T06:16:08.638Z,35.50
2019-03-24T06:17:08.622Z,38.80
2019-03-24T06:18:08.645Z,43.20
2019-03-24T06:19:08.606Z,36.80
2019-03-24T06:20:08.591Z,37.20
2019-03-24T06:21:08.589Z,34.80
2019-03-24T06:22:08.581Z,37.30
2019-03-24T06:23:08.597Z,33.00
2019-03-24T06:24:08.684Z,33.70
2019-03-24T06:25:08.551Z,35.20
2019-03-24T06:26:08.530Z,39.10
2019-03-24T06:27:08.528Z,35.30
2019-03-24T06:28:08.519Z,36.60
2019-03-24T06:29:08.512Z,34.60
2019-03-24T06:30:08.523Z,31.50
2019-03-24T06:31:08.476Z,35.40
2019-03-24T06:32:08.468Z,36.20
2019-03-24T06:33:08.463Z,34.00
2019-03-24T06:34:08.468Z,28.70
2019-03-24T06:35:08.436Z,31.00
2019-03-24T06:36:08.421Z,34.70
2019-03-24T06:37:08.417Z,31.50
2019-03-24T06:38:08.409Z,34.00
2019-03-24T06:39:08.416Z,34.10
2019-03-24T06:40:08.380Z,30.00
2019-03-24T06:41:08.372Z,31.90
2019-03-24T06:42:08.366Z,27.80
2019-03-24T06:43:08.354Z,31.50
2019-03-24T06:44:08.361Z,26.50
2019-03-24T06:45:08.339Z,35.70
2019-03-24T06:46:08.318Z,33.40
2019-03-24T06:47:08.307Z,27.40
2019-03-24T06:48:08.297Z,27.90
2019-03-24T06:49:08.306Z,29.20
2019-03-24T06:50:08.273Z,26.10
2019-03-24T06:51:08.261Z,30.00
2019-03-24T06:52:08.267Z,30.20
2019-03-24T06:53:08.243Z,26.40
2019-03-24T06:54:08.263Z,28.50
2019-03-24T06:55:08.228Z,29.20
2019-03-24T06:56:08.209Z,32.00
2019-03-24T06:57:08.224Z,26.00
2019-03-24T06:58:08.197Z,28.10
2019-03-24T06:59:08.197Z,29.20
2019-03-24T07:00:08.168Z,29.00
2019-03-24T07:01:08.158Z,30.10
2019-03-24T07:02:08.140Z,27.80
2019-03-24T07:03:08.140Z,26.20
2019-03-24T07:04:08.135Z,23.80
2019-03-24T07:05:08.114Z,29.00
2019-03-24T07:06:08.130Z,27.10
2019-03-24T07:07:08.101Z,26.60
2019-03-24T07:08:08.091Z,23.50
2019-03-24T07:09:08.100Z,25.60
2019-03-24T07:10:08.065Z,25.60
2019-03-24T07:11:13.408Z,26.50
2019-03-24T07:12:08.044Z,28.00
2019-03-24T07:13:08.031Z,26.00
2019-03-24T07:14:08.044Z,27.50
2019-03-24T07:15:08.012Z,26.30
2019-03-24T07:16:07.996Z,24.70
2019-03-24T07:17:07.983Z,29.80
2019-03-24T07:18:08.851Z,27.80
2019-03-24T07:19:07.995Z,23.90
2019-03-24T07:20:07.942Z,20.30
2019-03-24T07:21:07.945Z,27.10
2019-03-24T07:22:07.924Z,23.40
2019-03-24T07:23:07.919Z,25.00
2019-03-24T07:24:07.919Z,25.90
2019-03-24T07:26:28.032Z,27.30
2019-03-24T07:27:29.028Z,23.70
2019-03-24T07:28:29.011Z,23.90
2019-03-24T07:29:29.015Z,25.10
2019-03-24T07:30:28.992Z,24.90
2019-03-24T07:31:28.978Z,27.20
2019-03-24T07:32:28.983Z,25.00
2019-03-24T07:33:28.969Z,20.90
2019-03-24T07:34:28.969Z,20.70
2019-03-24T07:35:28.947Z,22.20
2019-03-24T07:36:28.923Z,25.30
2019-03-24T07:37:28.917Z,22.80
2019-03-24T07:38:28.903Z,23.20
2019-03-24T07:39:28.915Z,24.20
2019-03-24T07:40:28.890Z,23.20
2019-03-24T07:41:28.874Z,24.00
2019-03-24T07:42:28.851Z,25.70
2019-03-24T07:43:28.853Z,21.10
2019-03-24T07:44:28.866Z,22.90
2019-03-24T07:45:28.828Z,22.00
2019-03-24T07:46:28.824Z,19.90
2019-03-24T07:47:28.806Z,21.60
2019-03-24T07:48:28.811Z,24.80
2019-03-24T07:49:28.798Z,18.90
2019-03-24T07:50:28.796Z,20.20
2019-03-24T07:51:28.764Z,22.10
2019-03-24T07:52:28.753Z,20.70
2019-03-24T07:53:28.747Z,23.30
2019-03-24T07:54:28.801Z,20.90
2019-03-24T07:55:28.746Z,24.40
2019-03-24T07:56:28.733Z,19.90
2019-03-24T07:57:28.697Z,18.60
2019-03-24T07:58:28.690Z,21.50
2019-03-24T07:59:28.690Z,25.30
2019-03-24T08:00:28.680Z,20.10
2019-03-24T08:01:28.652Z,22.90
2019-03-24T08:02:28.658Z,21.30
2019-03-24T08:03:28.633Z,19.60
2019-03-24T08:04:28.618Z,21.70
2019-03-24T08:05:28.624Z,18.70
2019-03-24T08:06:28.603Z,22.60
2019-03-24T08:07:28.589Z,17.30
2019-03-24T08:08:28.583Z,21.50
2019-03-24T08:09:28.586Z,19.50
2019-03-24T08:10:28.582Z,18.40
2019-03-24T08:11:28.550Z,20.20
2019-03-24T08:12:28.537Z,19.60
2019-03-24T08:13:28.514Z,19.10
2019-03-24T08:14:28.512Z,14.90
2019-03-24T08:15:28.532Z,19.10
2019-03-24T08:16:28.476Z,18.60
2019-03-24T08:17:28.472Z,19.90
2019-03-24T08:18:30.087Z,21.00
2019-03-24T08:19:28.455Z,17.60
2019-03-24T08:20:28.453Z,21.80
2019-03-24T08:21:28.424Z,19.10
2019-03-24T08:22:28.412Z,23.20
2019-03-24T08:23:28.402Z,16.90
2019-03-24T08:24:28.389Z,23.20
2019-03-24T08:25:28.404Z,23.00
2019-03-24T08:26:28.368Z,17.80
2019-03-24T08:27:28.357Z,19.30
2019-03-24T08:28:28.345Z,19.40
2019-03-24T08:29:28.339Z,19.50
2019-03-24T08:30:28.914Z,15.60
2019-03-24T08:31:28.317Z,17.50
2019-03-24T08:32:28.312Z,18.60
2019-03-24T08:33:28.292Z,20.70
2019-03-24T08:34:28.298Z,17.00
2019-03-24T08:35:28.292Z,20.40
2019-03-24T08:36:28.263Z,22.40
2019-03-24T08:37:28.250Z,20.60
2019-03-24T08:38:28.236Z,18.40
2019-03-24T08:39:28.241Z,19.30
2019-03-24T08:40:28.238Z,20.00
2019-03-24T08:41:28.203Z,19.30
2019-03-24T08:42:28.195Z,20.40
2019-03-24T08:43:28.177Z,20.30
2019-03-24T08:44:28.188Z,20.10
2019-03-24T08:45:28.181Z,18.00
2019-03-24T08:46:28.150Z,19.40
2019-03-24T08:47:28.128Z,21.00
2019-03-24T08:48:28.129Z,18.40
2019-03-24T08:49:28.107Z,15.70
2019-03-24T08:50:28.115Z,19.10
2019-03-24T08:51:28.098Z,17.70
2019-03-24T08:52:28.090Z,17.10
2019-03-24T08:53:28.072Z,16.30
2019-03-24T08:54:28.070Z,18.90
2019-03-24T08:55:28.095Z,16.90
2019-03-24T08:56:28.033Z,18.60
2019-03-24T08:57:28.019Z,13.90
2019-03-24T08:58:28.023Z,18.70
2019-03-24T08:59:28.008Z,14.70
2019-03-24T09:00:30.858Z,18.10
2019-03-24T09:01:28.000Z,18.20
2019-03-24T09:02:27.982Z,14.20
2019-03-24T09:03:27.964Z,15.80
2019-03-24T09:04:27.977Z,16.70
2019-03-24T09:05:27.930Z,18.90
2019-03-24T09:06:27.940Z,15.70
2019-03-24T09:07:27.922Z,16.20
2019-03-24T09:08:27.906Z,18.30
2019-03-24T09:09:28.065Z,16.90
2019-03-24T09:10:27.915Z,18.50
2019-03-24T09:11:31.562Z,16.00
2019-03-24T09:12:27.879Z,18.10
2019-03-24T09:13:27.875Z,18.20
2019-03-24T09:14:27.887Z,15.60
2019-03-24T09:15:27.839Z,18.10
2019-03-24T09:16:27.841Z,16.20
2019-03-24T09:17:27.886Z,15.00
2019-03-24T09:18:27.801Z,17.60
2019-03-24T09:19:27.789Z,21.00
2019-03-24T09:20:27.778Z,14.70
2019-03-24T09:21:27.798Z,16.80
2019-03-24T09:22:27.759Z,16.00
2019-03-24T09:23:27.741Z,15.10
2019-03-24T09:24:27.745Z,18.90
2019-03-24T09:25:27.831Z,17.60
2019-03-24T09:27:58.801Z,12.80
2019-03-24T09:28:59.776Z,16.20
2019-03-24T09:29:59.763Z,19.30
2019-03-24T09:30:59.766Z,18.90
2019-03-24T09:31:59.797Z,19.00
2019-03-24T09:32:59.758Z,17.70
2019-03-24T09:33:59.711Z,17.60
2019-03-24T09:34:59.709Z,18.20
2019-03-24T09:35:59.698Z,17.10
2019-03-24T09:36:59.738Z,16.80
2019-03-24T09:37:59.686Z,16.80
2019-03-24T09:38:59.661Z,16.00
2019-03-24T09:39:59.659Z,14.50
2019-03-24T09:40:59.658Z,13.90
2019-03-24T09:41:59.656Z,17.80
2019-03-24T09:42:59.618Z,21.00
2019-03-24T09:43:59.624Z,17.30
2019-03-24T09:44:59.610Z,16.20
2019-03-24T09:45:59.608Z,12.80
2019-03-24T09:46:59.608Z,14.40
2019-03-24T09:47:59.567Z,16.00
2019-03-24T09:49:03.431Z,14.60
2019-03-24T09:49:59.543Z,15.40
2019-03-24T09:50:59.541Z,14.10
2019-03-24T09:51:59.554Z,16.10
2019-03-24T09:52:59.533Z,13.30
2019-03-24T09:53:59.510Z,14.80
2019-03-24T09:55:00.322Z,12.80
2019-03-24T09:55:59.499Z,16.70
2019-03-24T09:56:59.500Z,13.20
2019-03-24T09:57:59.469Z,14.30
2019-03-24T09:58:59.460Z,12.60
2019-03-24T09:59:59.445Z,12.20
2019-03-24T10:00:59.421Z,9.70
2019-03-24T10:01:59.441Z,9.40
2019-03-24T10:02:59.403Z,11.20
2019-03-24T10:03:59.400Z,9.90
2019-03-24T10:04:59.418Z,12.20
2019-03-24T10:05:59.377Z,9.80
2019-03-24T10:06:59.382Z,9.50
2019-03-24T10:07:59.360Z,10.50
2019-03-24T10:08:59.347Z,9.80
2019-03-24T10:09:59.327Z,9.70
2019-03-24T10:10:59.325Z,11.80
2019-03-24T10:11:59.325Z,8.60
2019-03-24T10:12:59.303Z,11.10
2019-03-24T10:13:59.278Z,11.00
2019-03-24T10:14:59.283Z,11.30
2019-03-24T10:15:59.255Z,12.50
2019-03-24T10:16:59.278Z,12.50
2019-03-24T10:17:59.250Z,11.50
2019-03-24T10:18:59.254Z,12.90
2019-03-24T10:19:59.217Z,11.90
2019-03-24T10:20:59.208Z,13.50
2019-03-24T10:21:59.216Z,14.40
2019-03-24T10:22:59.196Z,10.20
2019-03-24T10:23:59.168Z,11.40
2019-03-24T10:24:59.206Z,12.60
2019-03-24T10:25:59.164Z,9.60
2019-03-24T10:26:59.157Z,11.60
2019-03-24T10:27:59.152Z,12.50
2019-03-24T10:28:59.135Z,11.50
2019-03-24T10:29:59.105Z,6.60
2019-03-24T10:30:59.101Z,6.90
2019-03-24T10:31:59.102Z,7.70
2019-03-24T10:32:59.092Z,7.50
2019-03-24T10:33:59.082Z,8.60
2019-03-24T10:34:59.056Z,9.70
2019-03-24T10:35:59.048Z,9.40
2019-03-24T10:36:59.067Z,12.00
2019-03-24T10:37:59.033Z,10.00
2019-03-24T10:38:59.012Z,10.00
2019-03-24T10:39:58.995Z,10.80
2019-03-24T10:40:58.988Z,11.00
2019-03-24T10:41:58.996Z,10.40
2019-03-24T10:42:58.967Z,11.00
2019-03-24T10:43:58.955Z,10.90
2019-03-24T10:44:58.948Z,12.30
2019-03-24T10:45:58.972Z,12.10
2019-03-24T10:46:58.949Z,11.70
2019-03-24T10:47:58.914Z,11.60
2019-03-24T10:48:58.900Z,10.60
2019-03-24T10:49:58.888Z,9.40
2019-03-24T10:50:58.871Z,11.30
2019-03-24T10:51:58.883Z,10.90
2019-03-24T10:52:58.858Z,12.00
2019-03-24T10:53:58.880Z,10.20
2019-03-24T10:54:58.837Z,9.90
2019-03-24T10:55:58.843Z,8.30
2019-03-24T10:56:58.844Z,8.80
2019-03-24T10:57:58.807Z,8.90
2019-03-24T10:58:58.796Z,7.80
2019-03-24T10:59:58.776Z,10.50
2019-03-24T11:00:58.777Z,10.70
2019-03-24T11:01:58.772Z,8.10
2019-03-24T11:02:58.760Z,8.50
2019-03-24T11:03:58.765Z,10.10
2019-03-24T11:04:58.718Z,8.00
2019-03-24T11:05:58.722Z,7.30
2019-03-24T11:06:58.697Z,7.00
2019-03-24T11:07:58.752Z,7.60
2019-03-24T11:08:58.686Z,6.70
2019-03-24T11:09:58.683Z,9.10
2019-03-24T11:10:58.662Z,6.90
2019-03-24T11:11:58.639Z,8.30
2019-03-24T11:12:58.652Z,7.30
2019-03-24T11:13:58.627Z,9.60
2019-03-24T11:14:58.611Z,7.80
2019-03-24T11:15:59.630Z,8.30
2019-03-24T11:16:58.605Z,9.10
2019-03-24T11:17:58.610Z,9.60
2019-03-24T11:18:58.570Z,11.40
2019-03-24T11:19:58.552Z,10.00
2019-03-24T11:20:58.547Z,10.20
2019-03-24T11:21:58.536Z,9.30
2019-03-24T11:22:58.553Z,10.80
2019-03-24T11:23:58.601Z,7.90
2019-03-24T11:24:58.532Z,9.10
2019-03-24T11:25:58.535Z,9.80
2019-03-24T11:26:58.490Z,9.60
2019-03-24T11:29:08.790Z,5.40
2019-03-24T11:30:09.723Z,6.40
2019-03-24T11:31:09.713Z,6.90
2019-03-24T11:32:09.709Z,7.30
2019-03-24T11:33:09.721Z,9.30
2019-03-24T11:34:09.687Z,7.60
2019-03-24T11:35:09.686Z,6.60
2019-03-24T11:36:09.674Z,7.60
2019-03-24T11:37:09.655Z,8.50
2019-03-24T11:38:09.659Z,6.30
2019-03-24T11:39:09.649Z,9.20
2019-03-24T11:40:09.618Z,8.70
2019-03-24T11:41:09.609Z,9.30
2019-03-24T11:42:09.593Z,6.80
2019-03-24T11:43:09.606Z,7.50
2019-03-24T11:44:09.577Z,7.00
2019-03-24T11:45:09.562Z,7.60
2019-03-24T11:46:09.558Z,9.10
2019-03-24T11:47:09.548Z,8.90
2019-03-24T11:48:09.555Z,9.80
2019-03-24T11:49:09.525Z,8.50
2019-03-24T11:50:09.516Z,8.60
2019-03-24T11:51:09.503Z,8.00
2019-03-24T11:52:09.488Z,7.60
2019-03-24T11:53:09.506Z,5.10
2019-03-24T11:54:09.480Z,6.10
2019-03-24T11:55:09.455Z,6.20
2019-03-24T11:56:09.456Z,7.40
2019-03-24T11:57:09.432Z,6.00
2019-03-24T11:58:09.441Z,6.70
2019-03-24T11:59:09.918Z,6.70
2019-03-24T12:00:09.399Z,7.70
2019-03-24T12:01:09.391Z,7.70
2019-03-24T12:02:09.384Z,6.50
2019-03-24T12:03:09.434Z,8.00
2019-03-24T12:04:09.368Z,7.30
2019-03-24T12:05:09.353Z,6.50
2019-03-24T12:06:14.332Z,6.70
2019-03-24T12:07:09.325Z,8.00
2019-03-24T12:08:09.341Z,7.60
2019-03-24T12:09:09.311Z,9.10
2019-03-24T12:10:09.296Z,6.40
2019-03-24T12:11:09.287Z,7.60
2019-03-24T12:12:09.274Z,8.70
2019-03-24T12:13:09.283Z,7.00
2019-03-24T12:14:09.246Z,5.80
2019-03-24T12:15:09.235Z,5.60
2019-03-24T12:16:09.236Z,6.40
2019-03-24T12:17:09.223Z,6.30
2019-03-24T12:18:09.220Z,7.50
2019-03-24T12:19:09.201Z,6.00
2019-03-24T12:20:09.194Z,6.20
2019-03-24T12:21:09.175Z,7.40
2019-03-24T12:22:09.159Z,6.80
2019-03-24T12:23:09.174Z,7.60
2019-03-24T12:24:09.143Z,8.90
2019-03-24T12:25:09.123Z,9.00
2019-03-24T12:26:09.135Z,9.20
2019-03-24T12:27:09.108Z,6.80
2019-03-24T12:28:09.126Z,6.50
2019-03-24T12:29:09.096Z,5.80
2019-03-24T12:30:09.077Z,5.40
2019-03-24T12:31:09.062Z,6.90
2019-03-24T12:32:09.066Z,8.60
2019-03-24T12:33:09.053Z,8.30
2019-03-24T12:34:09.027Z,6.50
2019-03-24T12:35:09.024Z,6.40
2019-03-24T12:36:09.009Z,11.50
2019-03-24T12:37:09.003Z,8.20
2019-03-24T12:38:09.005Z,8.20
2019-03-24T12:39:08.977Z,7.80
2019-03-24T12:40:08.982Z,7.80
2019-03-24T12:41:08.950Z,8.10
2019-03-24T12:42:08.944Z,6.90
2019-03-24T12:43:18.865Z,6.30
2019-03-24T12:44:08.920Z,7.00
2019-03-24T12:45:08.911Z,7.80
2019-03-24T12:46:08.905Z,9.20
2019-03-24T12:47:08.883Z,7.70
2019-03-24T12:48:08.978Z,7.70
2019-03-24T12:49:08.879Z,7.30
2019-03-24T12:50:10.017Z,7.20
2019-03-24T12:51:08.855Z,7.10
2019-03-24T12:52:08.832Z,6.80
2019-03-24T12:53:08.849Z,7.20
2019-03-24T12:54:08.811Z,6.30
2019-03-24T12:55:08.815Z,6.50
2019-03-24T12:56:08.785Z,7.40
2019-03-24T12:57:08.781Z,7.70
2019-03-24T12:58:08.785Z,8.90
2019-03-24T12:59:08.775Z,8.70
2019-03-24T13:00:08.756Z,7.70
2019-03-24T13:01:08.737Z,7.70
2019-03-24T13:02:08.729Z,8.00
2019-03-24T13:03:08.735Z,6.80
2019-03-24T13:04:08.710Z,6.60
2019-03-24T13:05:08.682Z,8.40